sensor_id;sensor_type;location;lat;lon;timestamp;pressure;altitude;pressure_sealevel;temperature;humidity
37202;BME280;37799;52.390;6.136;2023-07-31T00:02:22;100899.66;;;15.11;100.00
37202;BME280;37799;52.390;6.136;2023-07-31T00:04:47;100894.69;;;15.04;100.00
37202;BME280;37799;52.390;6.136;2023-07-31T00:07:14;100898.78;;;15.10;100.00
37202;BME280;37799;52.390;6.136;2023-07-31T00:09:39;100900.56;;;15.10;100.00
37202;BME280;37799;52.390;6.136;2023-07-31T00:12:05;100899.31;;;15.18;100.00
37202;BME280;37799;52.390;6.136;2023-07-31T00:14:30;100901.34;;;15.12;100.00
37202;BME280;37799;52.390;6.136;2023-07-31T00:16:56;100896.13;;;15.12;100.00
37202;BME280;37799;52.390;6.136;2023-07-31T00:19:21;100891.78;;;15.31;100.00
37202;BME280;37799;52.390;6.136;2023-07-31T00:21:46;100887.50;;;15.30;100.00
37202;BME280;37799;52.390;6.136;2023-07-31T00:24:11;100882.88;;;15.16;100.00
37202;BME280;37799;52.390;6.136;2023-07-31T00:26:37;100879.59;;;15.31;100.00
37202;BME280;37799;52.390;6.136;2023-07-31T00:29:02;100880.50;;;15.12;100.00
37202;BME280;37799;52.390;6.136;2023-07-31T00:31:27;100870.06;;;15.12;100.00
37202;BME280;37799;52.390;6.136;2023-07-31T00:33:53;100865.81;;;15.09;100.00
37202;BME280;37799;52.390;6.136;2023-07-31T00:36:18;100859.41;;;15.16;100.00
37202;BME280;37799;52.390;6.136;2023-07-31T00:38:44;100857.81;;;15.32;100.00
37202;BME280;37799;52.390;6.136;2023-07-31T00:41:09;100850.34;;;15.25;100.00
37202;BME280;37799;52.390;6.136;2023-07-31T00:43:34;100861.31;;;15.31;100.00
37202;BME280;37799;52.390;6.136;2023-07-31T00:46:00;100867.03;;;15.21;100.00
37202;BME280;37799;52.390;6.136;2023-07-31T00:48:25;100854.41;;;15.12;100.00
37202;BME280;37799;52.390;6.136;2023-07-31T00:50:51;100856.81;;;15.16;100.00
37202;BME280;37799;52.390;6.136;2023-07-31T00:53:16;100845.81;;;15.28;100.00
37202;BME280;37799;52.390;6.136;2023-07-31T00:55:42;100840.31;;;15.34;100.00
37202;BME280;37799;52.390;6.136;2023-07-31T00:58:08;100843.97;;;15.30;100.00
37202;BME280;37799;52.390;6.136;2023-07-31T01:00:33;100844.53;;;15.18;100.00
37202;BME280;37799;52.390;6.136;2023-07-31T01:02:59;100847.59;;;15.28;100.00
37202;BME280;37799;52.390;6.136;2023-07-31T01:05:33;100847.94;;;15.39;100.00
37202;BME280;37799;52.390;6.136;2023-07-31T01:10:51;100841.31;;;15.32;100.00
37202;BME280;37799;52.390;6.136;2023-07-31T01:13:20;100837.00;;;15.31;100.00
37202;BME280;37799;52.390;6.136;2023-07-31T01:15:46;100836.31;;;15.27;100.00
37202;BME280;37799;52.390;6.136;2023-07-31T01:18:11;100832.47;;;15.34;100.00
37202;BME280;37799;52.390;6.136;2023-07-31T01:20:37;100835.97;;;15.54;100.00
37202;BME280;37799;52.390;6.136;2023-07-31T01:25:54;100829.47;;;15.44;100.00
37202;BME280;37799;52.390;6.136;2023-07-31T01:28:55;100825.03;;;15.27;100.00
37202;BME280;37799;52.390;6.136;2023-07-31T01:31:25;100826.50;;;15.32;100.00
37202;BME280;37799;52.390;6.136;2023-07-31T01:33:53;100818.59;;;15.53;100.00
37202;BME280;37799;52.390;6.136;2023-07-31T01:36:19;100814.22;;;15.34;100.00
37202;BME280;37799;52.390;6.136;2023-07-31T01:38:45;100823.13;;;15.30;100.00
37202;BME280;37799;52.390;6.136;2023-07-31T01:41:10;100813.25;;;15.37;100.00
37202;BME280;37799;52.390;6.136;2023-07-31T01:43:36;100819.19;;;15.41;100.00
37202;BME280;37799;52.390;6.136;2023-07-31T01:46:01;100813.81;;;15.44;100.00
37202;BME280;37799;52.390;6.136;2023-07-31T01:48:26;100811.50;;;15.38;100.00
37202;BME280;37799;52.390;6.136;2023-07-31T01:50:52;100809.31;;;15.28;100.00
37202;BME280;37799;52.390;6.136;2023-07-31T01:53:17;100806.81;;;15.44;100.00
37202;BME280;37799;52.390;6.136;2023-07-31T01:55:42;100806.31;;;15.55;100.00
37202;BME280;37799;52.390;6.136;2023-07-31T01:58:08;100804.38;;;15.60;100.00
37202;BME280;37799;52.390;6.136;2023-07-31T02:00:33;100792.78;;;15.47;100.00
37202;BME280;37799;52.390;6.136;2023-07-31T02:02:59;100787.72;;;15.44;100.00
37202;BME280;37799;52.390;6.136;2023-07-31T02:05:24;100792.78;;;15.47;100.00
37202;BME280;37799;52.390;6.136;2023-07-31T02:07:50;100779.38;;;15.54;100.00
37202;BME280;37799;52.390;6.136;2023-07-31T02:10:15;100773.69;;;15.65;100.00
37202;BME280;37799;52.390;6.136;2023-07-31T02:12:40;100768.66;;;15.60;100.00
37202;BME280;37799;52.390;6.136;2023-07-31T02:15:06;100774.94;;;15.56;100.00
37202;BME280;37799;52.390;6.136;2023-07-31T02:17:31;100778.38;;;15.57;100.00
37202;BME280;37799;52.390;6.136;2023-07-31T02:19:57;100772.78;;;15.66;100.00
37202;BME280;37799;52.390;6.136;2023-07-31T02:22:22;100763.31;;;15.63;100.00
37202;BME280;37799;52.390;6.136;2023-07-31T02:24:47;100762.41;;;15.65;100.00
37202;BME280;37799;52.390;6.136;2023-07-31T02:27:13;100754.13;;;15.55;100.00
37202;BME280;37799;52.390;6.136;2023-07-31T02:29:38;100761.03;;;15.56;100.00
37202;BME280;37799;52.390;6.136;2023-07-31T02:32:04;100748.63;;;15.61;100.00
37202;BME280;37799;52.390;6.136;2023-07-31T02:34:29;100748.50;;;15.64;100.00
37202;BME280;37799;52.390;6.136;2023-07-31T02:36:55;100753.25;;;15.73;100.00
37202;BME280;37799;52.390;6.136;2023-07-31T02:39:20;100754.25;;;15.71;100.00
37202;BME280;37799;52.390;6.136;2023-07-31T02:41:46;100756.59;;;15.94;100.00
37202;BME280;37799;52.390;6.136;2023-07-31T02:44:11;100754.06;;;15.92;100.00
37202;BME280;37799;52.390;6.136;2023-07-31T02:46:39;100743.31;;;15.99;100.00
37202;BME280;37799;52.390;6.136;2023-07-31T02:49:04;100746.56;;;16.04;100.00
37202;BME280;37799;52.390;6.136;2023-07-31T02:51:30;100740.41;;;16.05;100.00
37202;BME280;37799;52.390;6.136;2023-07-31T02:53:55;100740.31;;;16.06;100.00
37202;BME280;37799;52.390;6.136;2023-07-31T02:56:21;100742.47;;;16.15;100.00
37202;BME280;37799;52.390;6.136;2023-07-31T02:58:46;100743.94;;;16.04;100.00
37202;BME280;37799;52.390;6.136;2023-07-31T03:01:11;100755.38;;;16.18;100.00
37202;BME280;37799;52.390;6.136;2023-07-31T03:03:37;100741.94;;;16.09;100.00
37202;BME280;37799;52.390;6.136;2023-07-31T03:06:02;100743.75;;;16.24;100.00
37202;BME280;37799;52.390;6.136;2023-07-31T03:08:27;100749.16;;;16.21;100.00
37202;BME280;37799;52.390;6.136;2023-07-31T03:10:52;100750.47;;;16.30;100.00
37202;BME280;37799;52.390;6.136;2023-07-31T03:13:18;100745.00;;;16.34;100.00
37202;BME280;37799;52.390;6.136;2023-07-31T03:15:43;100749.13;;;16.38;100.00
37202;BME280;37799;52.390;6.136;2023-07-31T03:18:09;100743.69;;;16.43;100.00
37202;BME280;37799;52.390;6.136;2023-07-31T03:20:34;100743.69;;;16.43;100.00
37202;BME280;37799;52.390;6.136;2023-07-31T03:22:59;100733.47;;;16.21;100.00
37202;BME280;37799;52.390;6.136;2023-07-31T03:25:25;100748.38;;;16.36;100.00
37202;BME280;37799;52.390;6.136;2023-07-31T03:27:50;100747.22;;;16.42;100.00
37202;BME280;37799;52.390;6.136;2023-07-31T03:30:15;100744.81;;;16.37;100.00
37202;BME280;37799;52.390;6.136;2023-07-31T03:32:41;100744.91;;;16.36;100.00
37202;BME280;37799;52.390;6.136;2023-07-31T03:35:06;100742.59;;;16.47;100.00
37202;BME280;37799;52.390;6.136;2023-07-31T03:37:32;100751.94;;;16.51;100.00
37202;BME280;37799;52.390;6.136;2023-07-31T03:39:57;100745.03;;;16.50;100.00
37202;BME280;37799;52.390;6.136;2023-07-31T03:42:22;100746.78;;;16.67;100.00
37202;BME280;37799;52.390;6.136;2023-07-31T03:44:47;100749.34;;;16.68;100.00
37202;BME280;37799;52.390;6.136;2023-07-31T03:47:13;100746.50;;;16.56;100.00
37202;BME280;37799;52.390;6.136;2023-07-31T03:49:38;100746.91;;;16.48;100.00
37202;BME280;37799;52.390;6.136;2023-07-31T03:52:04;100740.50;;;16.53;100.00
37202;BME280;37799;52.390;6.136;2023-07-31T03:54:29;100737.63;;;16.42;100.00
37202;BME280;37799;52.390;6.136;2023-07-31T03:56:55;100734.59;;;16.50;100.00
37202;BME280;37799;52.390;6.136;2023-07-31T03:59:20;100728.50;;;16.49;100.00
37202;BME280;37799;52.390;6.136;2023-07-31T04:01:45;100730.97;;;16.52;100.00
37202;BME280;37799;52.390;6.136;2023-07-31T04:04:11;100732.91;;;16.49;100.00
37202;BME280;37799;52.390;6.136;2023-07-31T04:06:36;100735.94;;;16.41;100.00
37202;BME280;37799;52.390;6.136;2023-07-31T04:09:02;100738.13;;;16.49;100.00
37202;BME280;37799;52.390;6.136;2023-07-31T04:11:28;100736.06;;;16.38;100.00
37202;BME280;37799;52.390;6.136;2023-07-31T04:13:53;100730.53;;;16.44;100.00
37202;BME280;37799;52.390;6.136;2023-07-31T04:16:19;100734.06;;;16.43;100.00
37202;BME280;37799;52.390;6.136;2023-07-31T04:18:44;100728.69;;;16.46;100.00
37202;BME280;37799;52.390;6.136;2023-07-31T04:21:09;100728.97;;;16.40;100.00
37202;BME280;37799;52.390;6.136;2023-07-31T04:23:35;100729.81;;;16.58;100.00
37202;BME280;37799;52.390;6.136;2023-07-31T04:26:00;100726.94;;;16.63;100.00
37202;BME280;37799;52.390;6.136;2023-07-31T04:28:26;100714.09;;;16.42;100.00
37202;BME280;37799;52.390;6.136;2023-07-31T04:30:51;100719.63;;;16.36;100.00
37202;BME280;37799;52.390;6.136;2023-07-31T04:33:17;100718.47;;;16.42;100.00
37202;BME280;37799;52.390;6.136;2023-07-31T04:35:51;100719.16;;;16.45;100.00
37202;BME280;37799;52.390;6.136;2023-07-31T04:38:18;100715.16;;;16.38;100.00
37202;BME280;37799;52.390;6.136;2023-07-31T04:40:44;100718.09;;;16.32;100.00
37202;BME280;37799;52.390;6.136;2023-07-31T04:43:09;100718.69;;;16.37;100.00
37202;BME280;37799;52.390;6.136;2023-07-31T04:45:34;100706.56;;;16.36;100.00
37202;BME280;37799;52.390;6.136;2023-07-31T04:48:00;100705.78;;;16.34;100.00
37202;BME280;37799;52.390;6.136;2023-07-31T04:50:25;100706.72;;;16.33;100.00
37202;BME280;37799;52.390;6.136;2023-07-31T04:52:51;100706.25;;;16.42;100.00
37202;BME280;37799;52.390;6.136;2023-07-31T04:55:16;100699.63;;;16.35;100.00
37202;BME280;37799;52.390;6.136;2023-07-31T04:57:41;100697.13;;;16.34;100.00
37202;BME280;37799;52.390;6.136;2023-07-31T05:00:07;100697.41;;;16.45;100.00
37202;BME280;37799;52.390;6.136;2023-07-31T05:02:33;100697.47;;;16.43;100.00
37202;BME280;37799;52.390;6.136;2023-07-31T05:04:58;100699.59;;;16.52;100.00
37202;BME280;37799;52.390;6.136;2023-07-31T05:07:24;100702.53;;;16.46;100.00
37202;BME280;37799;52.390;6.136;2023-07-31T05:09:49;100697.16;;;16.49;100.00
37202;BME280;37799;52.390;6.136;2023-07-31T05:12:14;100701.78;;;16.44;100.00
37202;BME280;37799;52.390;6.136;2023-07-31T05:14:40;100693.38;;;16.55;100.00
37202;BME280;37799;52.390;6.136;2023-07-31T05:17:05;100695.28;;;16.51;100.00
37202;BME280;37799;52.390;6.136;2023-07-31T05:19:31;100703.34;;;16.64;100.00
37202;BME280;37799;52.390;6.136;2023-07-31T05:21:56;100690.44;;;16.61;100.00
37202;BME280;37799;52.390;6.136;2023-07-31T05:24:21;100692.94;;;16.47;100.00
37202;BME280;37799;52.390;6.136;2023-07-31T05:26:47;100688.22;;;16.53;100.00
37202;BME280;37799;52.390;6.136;2023-07-31T05:29:12;100679.38;;;16.56;100.00
37202;BME280;37799;52.390;6.136;2023-07-31T05:31:38;100683.44;;;16.62;100.00
37202;BME280;37799;52.390;6.136;2023-07-31T05:34:03;100679.13;;;16.61;100.00
37202;BME280;37799;52.390;6.136;2023-07-31T05:36:29;100678.81;;;16.67;100.00
37202;BME280;37799;52.390;6.136;2023-07-31T05:38:54;100671.88;;;16.66;100.00
37202;BME280;37799;52.390;6.136;2023-07-31T05:41:20;100673.91;;;16.61;100.00
37202;BME280;37799;52.390;6.136;2023-07-31T05:43:45;100663.63;;;16.58;100.00
37202;BME280;37799;52.390;6.136;2023-07-31T05:46:10;100669.25;;;16.67;100.00
37202;BME280;37799;52.390;6.136;2023-07-31T05:48:37;100661.41;;;16.66;100.00
37202;BME280;37799;52.390;6.136;2023-07-31T05:51:02;100660.13;;;16.74;100.00
37202;BME280;37799;52.390;6.136;2023-07-31T05:53:28;100666.81;;;16.80;100.00
37202;BME280;37799;52.390;6.136;2023-07-31T05:55:53;100661.31;;;16.69;100.00
37202;BME280;37799;52.390;6.136;2023-07-31T05:58:18;100664.25;;;16.78;100.00
37202;BME280;37799;52.390;6.136;2023-07-31T06:00:44;100658.81;;;16.66;100.00
37202;BME280;37799;52.390;6.136;2023-07-31T06:03:09;100667.56;;;16.49;100.00
37202;BME280;37799;52.390;6.136;2023-07-31T06:05:34;100656.59;;;16.42;100.00
37202;BME280;37799;52.390;6.136;2023-07-31T06:08:00;100654.31;;;16.52;100.00
37202;BME280;37799;52.390;6.136;2023-07-31T06:10:26;100660.13;;;16.41;100.00
37202;BME280;37799;52.390;6.136;2023-07-31T06:12:53;100647.47;;;16.34;100.00
37202;BME280;37799;52.390;6.136;2023-07-31T06:15:19;100656.22;;;16.33;100.00
37202;BME280;37799;52.390;6.136;2023-07-31T06:17:45;100645.56;;;16.20;100.00
37202;BME280;37799;52.390;6.136;2023-07-31T06:20:10;100649.63;;;16.26;100.00
37202;BME280;37799;52.390;6.136;2023-07-31T06:22:36;100643.53;;;16.42;100.00
37202;BME280;37799;52.390;6.136;2023-07-31T06:25:01;100650.09;;;16.49;100.00
37202;BME280;37799;52.390;6.136;2023-07-31T06:27:27;100634.91;;;16.40;100.00
37202;BME280;37799;52.390;6.136;2023-07-31T06:29:52;100635.19;;;16.51;100.00
37202;BME280;37799;52.390;6.136;2023-07-31T06:32:17;100634.59;;;16.62;100.00
37202;BME280;37799;52.390;6.136;2023-07-31T06:34:43;100645.53;;;16.70;100.00
37202;BME280;37799;52.390;6.136;2023-07-31T06:37:08;100635.34;;;16.82;100.00
37202;BME280;37799;52.390;6.136;2023-07-31T06:39:34;100633.56;;;16.82;100.00
37202;BME280;37799;52.390;6.136;2023-07-31T06:41:59;100630.28;;;16.94;100.00
37202;BME280;37799;52.390;6.136;2023-07-31T06:44:24;100620.41;;;16.84;100.00
37202;BME280;37799;52.390;6.136;2023-07-31T06:46:50;100618.63;;;16.84;100.00
37202;BME280;37799;52.390;6.136;2023-07-31T06:49:15;100617.19;;;16.94;100.00
37202;BME280;37799;52.390;6.136;2023-07-31T06:51:41;100617.28;;;16.93;100.00
37202;BME280;37799;52.390;6.136;2023-07-31T06:54:08;100614.06;;;16.88;100.00
37202;BME280;37799;52.390;6.136;2023-07-31T06:56:33;100618.63;;;16.84;100.00
37202;BME280;37799;52.390;6.136;2023-07-31T06:58:59;100624.34;;;16.91;100.00
37202;BME280;37799;52.390;6.136;2023-07-31T07:01:24;100608.66;;;16.75;100.00
37202;BME280;37799;52.390;6.136;2023-07-31T07:03:50;100606.66;;;16.80;100.00
37202;BME280;37799;52.390;6.136;2023-07-31T07:06:19;100609.50;;;16.91;100.00
37202;BME280;37799;52.390;6.136;2023-07-31T07:08:44;100605.63;;;16.83;100.00
37202;BME280;37799;52.390;6.136;2023-07-31T07:11:10;100601.06;;;16.86;100.00
37202;BME280;37799;52.390;6.136;2023-07-31T07:13:35;100592.97;;;17.06;100.00
37202;BME280;37799;52.390;6.136;2023-07-31T07:16:01;100592.72;;;16.95;100.00
37202;BME280;37799;52.390;6.136;2023-07-31T07:18:26;100589.25;;;16.95;100.00
37202;BME280;37799;52.390;6.136;2023-07-31T07:20:52;100588.31;;;17.12;100.00
37202;BME280;37799;52.390;6.136;2023-07-31T07:23:18;100585.59;;;17.13;100.00
37202;BME280;37799;52.390;6.136;2023-07-31T07:25:45;100593.34;;;17.15;100.00
37202;BME280;37799;52.390;6.136;2023-07-31T07:28:11;100591.63;;;17.29;100.00
37202;BME280;37799;52.390;6.136;2023-07-31T07:30:37;100587.84;;;17.35;100.00
37202;BME280;37799;52.390;6.136;2023-07-31T07:33:02;100594.00;;;17.18;100.00
37202;BME280;37799;52.390;6.136;2023-07-31T07:35:28;100581.72;;;17.20;100.00
37202;BME280;37799;52.390;6.136;2023-07-31T07:37:53;100583.13;;;17.26;100.00
37202;BME280;37799;52.390;6.136;2023-07-31T07:40:19;100594.09;;;17.32;100.00
37202;BME280;37799;52.390;6.136;2023-07-31T07:42:45;100575.78;;;17.17;100.00
37202;BME280;37799;52.390;6.136;2023-07-31T07:45:10;100577.38;;;17.35;100.00
37202;BME280;37799;52.390;6.136;2023-07-31T07:47:36;100578.97;;;17.52;100.00
37202;BME280;37799;52.390;6.136;2023-07-31T07:50:01;100582.84;;;17.60;100.00
37202;BME280;37799;52.390;6.136;2023-07-31T07:52:26;100583.19;;;17.54;100.00
37202;BME280;37799;52.390;6.136;2023-07-31T07:54:52;100582.56;;;17.65;100.00
37202;BME280;37799;52.390;6.136;2023-07-31T07:57:18;100575.47;;;17.67;100.00
37202;BME280;37799;52.390;6.136;2023-07-31T07:59:43;100581.63;;;17.66;100.00
37202;BME280;37799;52.390;6.136;2023-07-31T08:02:09;100572.78;;;17.68;100.00
37202;BME280;37799;52.390;6.136;2023-07-31T08:04:34;100572.69;;;17.70;100.00
37202;BME280;37799;52.390;6.136;2023-07-31T08:06:59;100571.03;;;17.53;100.00
37202;BME280;37799;52.390;6.136;2023-07-31T08:09:25;100564.53;;;17.60;100.00
37202;BME280;37799;52.390;6.136;2023-07-31T08:11:50;100562.81;;;17.45;100.00
37202;BME280;37799;52.390;6.136;2023-07-31T08:14:15;100560.78;;;17.64;100.00
37202;BME280;37799;52.390;6.136;2023-07-31T08:16:41;100559.44;;;17.57;100.00
37202;BME280;37799;52.390;6.136;2023-07-31T08:19:06;100552.53;;;17.56;100.00
37202;BME280;37799;52.390;6.136;2023-07-31T08:21:31;100557.94;;;17.53;100.00
37202;BME280;37799;52.390;6.136;2023-07-31T08:23:57;100547.94;;;17.46;100.00
37202;BME280;37799;52.390;6.136;2023-07-31T08:26:22;100545.50;;;17.57;100.00
37202;BME280;37799;52.390;6.136;2023-07-31T08:28:48;100554.78;;;17.62;100.00
37202;BME280;37799;52.390;6.136;2023-07-31T08:31:13;100548.53;;;17.65;100.00
37202;BME280;37799;52.390;6.136;2023-07-31T08:33:39;100546.00;;;17.63;100.00
37202;BME280;37799;52.390;6.136;2023-07-31T08:36:05;100544.31;;;17.48;100.00
37202;BME280;37799;52.390;6.136;2023-07-31T08:38:31;100550.41;;;17.63;100.00
37202;BME280;37799;52.390;6.136;2023-07-31T08:40:57;100542.63;;;17.61;100.00
37202;BME280;37799;52.390;6.136;2023-07-31T08:43:25;100547.50;;;17.67;100.00
37202;BME280;37799;52.390;6.136;2023-07-31T08:45:51;100542.34;;;17.66;100.00
37202;BME280;37799;52.390;6.136;2023-07-31T08:48:17;100544.84;;;17.53;100.00
37202;BME280;37799;52.390;6.136;2023-07-31T08:50:43;100527.56;;;17.65;100.00
37202;BME280;37799;52.390;6.136;2023-07-31T08:53:08;100531.72;;;17.69;100.00
37202;BME280;37799;52.390;6.136;2023-07-31T08:55:35;100536.13;;;17.83;100.00
37202;BME280;37799;52.390;6.136;2023-07-31T08:58:03;100540.25;;;17.87;100.00
37202;BME280;37799;52.390;6.136;2023-07-31T09:00:31;100535.84;;;18.02;100.00
37202;BME280;37799;52.390;6.136;2023-07-31T09:03:03;100543.91;;;17.98;100.00
37202;BME280;37799;52.390;6.136;2023-07-31T09:05:30;100537.06;;;18.10;100.00
37202;BME280;37799;52.390;6.136;2023-07-31T09:07:57;100540.81;;;17.92;100.00
37202;BME280;37799;52.390;6.136;2023-07-31T09:10:22;100546.03;;;17.92;100.00
37202;BME280;37799;52.390;6.136;2023-07-31T09:12:52;100540.25;;;18.01;100.00
37202;BME280;37799;52.390;6.136;2023-07-31T09:15:18;100533.03;;;18.05;100.00
37202;BME280;37799;52.390;6.136;2023-07-31T09:17:44;100540.34;;;18.14;100.00
37202;BME280;37799;52.390;6.136;2023-07-31T09:20:17;100525.72;;;18.24;100.00
37202;BME280;37799;52.390;6.136;2023-07-31T09:22:44;100529.34;;;18.36;100.00
37202;BME280;37799;52.390;6.136;2023-07-31T09:25:23;100525.06;;;18.62;100.00
37202;BME280;37799;52.390;6.136;2023-07-31T09:28:10;100528.63;;;18.61;100.00
37202;BME280;37799;52.390;6.136;2023-07-31T09:30:49;100521.97;;;18.69;100.00
37202;BME280;37799;52.390;6.136;2023-07-31T09:33:15;100526.72;;;18.50;100.00
37202;BME280;37799;52.390;6.136;2023-07-31T09:35:41;100522.03;;;18.41;100.00
37202;BME280;37799;52.390;6.136;2023-07-31T09:38:10;100517.78;;;18.67;100.00
37202;BME280;37799;52.390;6.136;2023-07-31T09:40:40;100523.56;;;18.72;100.00
37202;BME280;37799;52.390;6.136;2023-07-31T09:43:10;100518.41;;;18.70;100.00
37202;BME280;37799;52.390;6.136;2023-07-31T09:45:40;100508.19;;;18.80;100.00
37202;BME280;37799;52.390;6.136;2023-07-31T09:48:16;100519.09;;;18.86;100.00
37202;BME280;37799;52.390;6.136;2023-07-31T09:50:47;100510.41;;;18.99;100.00
37202;BME280;37799;52.390;6.136;2023-07-31T09:53:13;100502.41;;;18.88;100.00
37202;BME280;37799;52.390;6.136;2023-07-31T09:55:40;100508.88;;;19.09;100.00
37202;BME280;37799;52.390;6.136;2023-07-31T09:58:08;100514.38;;;19.31;100.00
37202;BME280;37799;52.390;6.136;2023-07-31T10:00:34;100515.22;;;19.32;100.00
37202;BME280;37799;52.390;6.136;2023-07-31T10:03:01;100512.06;;;19.39;100.00
37202;BME280;37799;52.390;6.136;2023-07-31T10:05:33;100502.94;;;19.32;100.00
37202;BME280;37799;52.390;6.136;2023-07-31T10:07:59;100509.34;;;19.28;100.00
37202;BME280;37799;52.390;6.136;2023-07-31T10:10:25;100508.28;;;19.31;100.00
37202;BME280;37799;52.390;6.136;2023-07-31T10:12:53;100503.22;;;19.15;100.00
37202;BME280;37799;52.390;6.136;2023-07-31T10:15:19;100507.22;;;19.21;100.00
37202;BME280;37799;52.390;6.136;2023-07-31T10:17:48;100511.88;;;19.42;100.00
37202;BME280;37799;52.390;6.136;2023-07-31T10:20:15;100517.13;;;19.42;100.00
37202;BME280;37799;52.390;6.136;2023-07-31T10:22:44;100510.81;;;19.32;100.00
37202;BME280;37799;52.390;6.136;2023-07-31T10:25:15;100514.00;;;18.98;100.00
37202;BME280;37799;52.390;6.136;2023-07-31T10:27:41;100503.78;;;18.80;100.00
37202;BME280;37799;52.390;6.136;2023-07-31T10:30:12;100514.66;;;18.74;100.00
37202;BME280;37799;52.390;6.136;2023-07-31T10:32:40;100509.41;;;18.74;100.00
37202;BME280;37799;52.390;6.136;2023-07-31T10:35:07;100499.53;;;18.65;100.00
37202;BME280;37799;52.390;6.136;2023-07-31T10:37:41;100504.91;;;19.16;100.00
37202;BME280;37799;52.390;6.136;2023-07-31T10:40:12;100511.63;;;19.20;100.00
37202;BME280;37799;52.390;6.136;2023-07-31T10:42:53;100495.44;;;19.26;100.00
37202;BME280;37799;52.390;6.136;2023-07-31T10:45:37;100495.47;;;19.39;100.00
37202;BME280;37799;52.390;6.136;2023-07-31T10:48:04;100489.38;;;19.51;100.00
37202;BME280;37799;52.390;6.136;2023-07-31T10:50:31;100498.72;;;19.30;100.00
37202;BME280;37799;52.390;6.136;2023-07-31T10:53:00;100503.66;;;19.34;100.00
37202;BME280;37799;52.390;6.136;2023-07-31T10:55:38;100501.97;;;19.33;100.00
37202;BME280;37799;52.390;6.136;2023-07-31T10:58:10;100494.00;;;19.48;100.00
37202;BME280;37799;52.390;6.136;2023-07-31T11:00:40;100500.41;;;19.31;100.00
37202;BME280;37799;52.390;6.136;2023-07-31T11:03:14;100492.31;;;19.47;100.00
37202;BME280;37799;52.390;6.136;2023-07-31T11:08:25;100488.84;;;19.33;100.00
37202;BME280;37799;52.390;6.136;2023-07-31T11:11:11;100496.22;;;19.28;100.00
37202;BME280;37799;52.390;6.136;2023-07-31T11:13:47;100493.28;;;19.45;100.00
37202;BME280;37799;52.390;6.136;2023-07-31T11:16:18;100499.88;;;19.38;100.00
37202;BME280;37799;52.390;6.136;2023-07-31T11:18:45;100495.91;;;19.45;100.00
37202;BME280;37799;52.390;6.136;2023-07-31T11:21:22;100490.97;;;19.54;100.00
37202;BME280;37799;52.390;6.136;2023-07-31T11:23:56;100489.59;;;19.48;100.00
37202;BME280;37799;52.390;6.136;2023-07-31T11:26:23;100494.63;;;19.51;100.00
37202;BME280;37799;52.390;6.136;2023-07-31T11:28:50;100493.19;;;19.60;100.00
37202;BME280;37799;52.390;6.136;2023-07-31T11:31:16;100485.66;;;19.68;100.00
37202;BME280;37799;52.390;6.136;2023-07-31T11:33:42;100481.22;;;19.56;100.00
37202;BME280;37799;52.390;6.136;2023-07-31T11:36:18;100497.94;;;19.55;100.00
37202;BME280;37799;52.390;6.136;2023-07-31T11:38:43;100498.41;;;19.34;100.00
37202;BME280;37799;52.390;6.136;2023-07-31T11:41:09;100498.00;;;19.40;100.00
37202;BME280;37799;52.390;6.136;2023-07-31T11:43:34;100490.31;;;19.37;100.00
37202;BME280;37799;52.390;6.136;2023-07-31T11:46:02;100494.13;;;19.46;100.00
37202;BME280;37799;52.390;6.136;2023-07-31T11:48:36;100494.00;;;19.86;100.00
37202;BME280;37799;52.390;6.136;2023-07-31T11:51:08;100496.66;;;19.73;100.00
37202;BME280;37799;52.390;6.136;2023-07-31T11:53:51;100491.63;;;19.70;100.00
37202;BME280;37799;52.390;6.136;2023-07-31T11:56:19;100492.47;;;19.58;100.00
37202;BME280;37799;52.390;6.136;2023-07-31T11:58:49;100490.06;;;19.67;100.00
37202;BME280;37799;52.390;6.136;2023-07-31T12:01:18;100478.78;;;19.65;100.00
37202;BME280;37799;52.390;6.136;2023-07-31T12:03:45;100488.16;;;19.82;100.00
37202;BME280;37799;52.390;6.136;2023-07-31T12:06:11;100473.00;;;19.73;100.00
37202;BME280;37799;52.390;6.136;2023-07-31T12:08:36;100479.41;;;19.94;100.00
37202;BME280;37799;52.390;6.136;2023-07-31T12:11:04;100492.50;;;20.07;100.00
37202;BME280;37799;52.390;6.136;2023-07-31T12:13:30;100486.84;;;20.37;100.00
37202;BME280;37799;52.390;6.136;2023-07-31T12:15:58;100498.38;;;20.11;100.00
37202;BME280;37799;52.390;6.136;2023-07-31T12:18:26;100485.56;;;20.19;100.00
37202;BME280;37799;52.390;6.136;2023-07-31T12:23:25;100492.03;;;20.26;100.00
37202;BME280;37799;52.390;6.136;2023-07-31T12:26:11;100494.72;;;20.37;100.00
37202;BME280;37799;52.390;6.136;2023-07-31T12:28:41;100495.50;;;20.26;100.00
37202;BME280;37799;52.390;6.136;2023-07-31T12:33:40;100485.66;;;20.54;100.00
37202;BME280;37799;52.390;6.136;2023-07-31T12:36:11;100493.22;;;20.58;100.00
37202;BME280;37799;52.390;6.136;2023-07-31T12:38:37;100486.09;;;20.48;100.00
37202;BME280;37799;52.390;6.136;2023-07-31T12:41:02;100488.84;;;20.46;100.00
37202;BME280;37799;52.390;6.136;2023-07-31T12:43:27;100480.16;;;20.57;100.00
37202;BME280;37799;52.390;6.136;2023-07-31T12:45:54;100482.28;;;20.15;100.00
37202;BME280;37799;52.390;6.136;2023-07-31T12:48:21;100484.63;;;20.07;100.00
37202;BME280;37799;52.390;6.136;2023-07-31T12:50:46;100480.25;;;19.95;100.00
37202;BME280;37799;52.390;6.136;2023-07-31T12:53:12;100479.44;;;19.82;100.00